sensor_id;sensor_type;location;lat;lon;timestamp;pressure;altitude;pressure_sealevel;temperature;humidity
64614;BME280;51025;37.772;-122.432;2023-10-09T00:01:46;100466.61;;;24.79;25.93
64614;BME280;51025;37.772;-122.432;2023-10-09T00:04:14;100459.90;;;24.54;26.11
64614;BME280;51025;37.772;-122.432;2023-10-09T00:06:42;100460.60;;;24.60;26.06
64614;BME280;51025;37.772;-122.432;2023-10-09T00:09:11;100459.74;;;24.76;25.95
64614;BME280;51025;37.772;-122.432;2023-10-09T00:11:39;100459.09;;;23.92;26.30
64614;BME280;51025;37.772;-122.432;2023-10-09T00:14:07;100461.81;;;24.35;26.24
64614;BME280;51025;37.772;-122.432;2023-10-09T00:16:35;100453.61;;;23.84;26.36
64614;BME280;51025;37.772;-122.432;2023-10-09T00:19:05;100452.85;;;23.80;26.00
64614;BME280;51025;37.772;-122.432;2023-10-09T00:21:34;100457.77;;;23.70;26.41
64614;BME280;51025;37.772;-122.432;2023-10-09T00:24:02;100455.37;;;24.48;26.10
64614;BME280;51025;37.772;-122.432;2023-10-09T00:26:30;100460.36;;;23.74;26.74
64614;BME280;51025;37.772;-122.432;2023-10-09T00:28:58;100460.41;;;24.15;26.43
64614;BME280;51025;37.772;-122.432;2023-10-09T00:31:27;100461.12;;;23.39;26.40
64614;BME280;51025;37.772;-122.432;2023-10-09T00:33:55;100457.34;;;23.62;26.48
64614;BME280;51025;37.772;-122.432;2023-10-09T00:36:24;100459.24;;;23.71;26.09
64614;BME280;51025;37.772;-122.432;2023-10-09T00:38:52;100458.20;;;24.17;26.33
64614;BME280;51025;37.772;-122.432;2023-10-09T00:41:21;100453.42;;;24.09;26.41
64614;BME280;51025;37.772;-122.432;2023-10-09T00:43:50;100454.09;;;23.95;26.49
64614;BME280;51025;37.772;-122.432;2023-10-09T00:46:20;100458.88;;;23.91;26.57
64614;BME280;51025;37.772;-122.432;2023-10-09T00:48:51;100457.50;;;24.26;26.29
64614;BME280;51025;37.772;-122.432;2023-10-09T00:51:21;100461.16;;;24.03;26.44
64614;BME280;51025;37.772;-122.432;2023-10-09T00:53:52;100460.65;;;24.15;26.33
64614;BME280;51025;37.772;-122.432;2023-10-09T00:56:23;100455.64;;;23.55;26.83
64614;BME280;51025;37.772;-122.432;2023-10-09T00:58:53;100452.87;;;23.51;26.91
64614;BME280;51025;37.772;-122.432;2023-10-09T01:01:22;100454.87;;;23.64;26.47
64614;BME280;51025;37.772;-122.432;2023-10-09T01:03:51;100457.46;;;23.31;27.02
64614;BME280;51025;37.772;-122.432;2023-10-09T01:06:19;100452.17;;;23.62;26.78
64614;BME280;51025;37.772;-122.432;2023-10-09T01:08:48;100452.18;;;23.63;26.78
64614;BME280;51025;37.772;-122.432;2023-10-09T01:11:17;100461.41;;;23.30;27.13
64614;BME280;51025;37.772;-122.432;2023-10-09T01:13:48;100460.01;;;23.53;26.93
64614;BME280;51025;37.772;-122.432;2023-10-09T01:16:17;100460.75;;;23.34;27.10
64614;BME280;51025;37.772;-122.432;2023-10-09T01:18:46;100461.11;;;23.76;26.79
64614;BME280;51025;37.772;-122.432;2023-10-09T01:21:15;100453.80;;;23.46;27.02
64614;BME280;51025;37.772;-122.432;2023-10-09T01:23:45;100462.09;;;23.68;26.86
64614;BME280;51025;37.772;-122.432;2023-10-09T01:26:13;100459.75;;;23.10;27.33
64614;BME280;51025;37.772;-122.432;2023-10-09T01:28:41;100455.91;;;23.00;27.39
64614;BME280;51025;37.772;-122.432;2023-10-09T01:31:09;100456.24;;;23.15;27.26
64614;BME280;51025;37.772;-122.432;2023-10-09T01:33:38;100452.02;;;23.20;27.18
64614;BME280;51025;37.772;-122.432;2023-10-09T01:36:06;100450.82;;;23.41;27.01
64614;BME280;51025;37.772;-122.432;2023-10-09T01:38:34;100454.60;;;23.20;27.43
64614;BME280;51025;37.772;-122.432;2023-10-09T01:41:03;100447.84;;;23.13;27.22
64614;BME280;51025;37.772;-122.432;2023-10-09T01:43:31;100448.83;;;22.02;27.51
64614;BME280;51025;37.772;-122.432;2023-10-09T01:45:59;100454.68;;;22.73;27.58
64614;BME280;51025;37.772;-122.432;2023-10-09T01:48:27;100451.87;;;22.51;27.47
64614;BME280;51025;37.772;-122.432;2023-10-09T01:50:56;100452.89;;;23.25;27.45
64614;BME280;51025;37.772;-122.432;2023-10-09T01:53:25;100455.18;;;22.84;27.48
64614;BME280;51025;37.772;-122.432;2023-10-09T01:55:53;100454.69;;;23.33;27.09
64614;BME280;51025;37.772;-122.432;2023-10-09T01:58:22;100453.72;;;22.95;27.40
64614;BME280;51025;37.772;-122.432;2023-10-09T02:00:51;100451.06;;;23.43;27.05
64614;BME280;51025;37.772;-122.432;2023-10-09T02:03:19;100455.83;;;23.30;27.20
64614;BME280;51025;37.772;-122.432;2023-10-09T02:05:48;100451.93;;;23.11;27.34
64614;BME280;51025;37.772;-122.432;2023-10-09T02:08:16;100453.17;;;23.56;27.30
64614;BME280;51025;37.772;-122.432;2023-10-09T02:10:44;100464.46;;;22.94;27.52
64614;BME280;51025;37.772;-122.432;2023-10-09T02:13:12;100472.12;;;23.28;27.34
64614;BME280;51025;37.772;-122.432;2023-10-09T02:15:41;100473.89;;;23.06;27.52
64614;BME280;51025;37.772;-122.432;2023-10-09T02:18:09;100471.78;;;23.89;26.80
64614;BME280;51025;37.772;-122.432;2023-10-09T02:20:38;100482.79;;;23.40;27.20
64614;BME280;51025;37.772;-122.432;2023-10-09T02:23:06;100487.32;;;23.80;27.21
64614;BME280;51025;37.772;-122.432;2023-10-09T02:25:35;100487.78;;;23.36;27.22
64614;BME280;51025;37.772;-122.432;2023-10-09T02:28:04;100489.74;;;23.28;27.35
64614;BME280;51025;37.772;-122.432;2023-10-09T02:30:33;100492.41;;;22.83;27.02
64614;BME280;51025;37.772;-122.432;2023-10-09T02:33:01;100491.39;;;23.96;26.73
64614;BME280;51025;37.772;-122.432;2023-10-09T02:35:30;100500.18;;;23.12;27.15
64614;BME280;51025;37.772;-122.432;2023-10-09T02:37:59;100502.53;;;23.65;27.00
64614;BME280;51025;37.772;-122.432;2023-10-09T02:40:28;100495.11;;;23.14;26.78
64614;BME280;51025;37.772;-122.432;2023-10-09T02:42:56;100504.63;;;23.56;27.11
64614;BME280;51025;37.772;-122.432;2023-10-09T02:45:25;100505.05;;;23.66;27.05
64614;BME280;51025;37.772;-122.432;2023-10-09T02:47:54;100504.57;;;24.39;26.49
64614;BME280;51025;37.772;-122.432;2023-10-09T02:50:23;100508.76;;;24.08;26.86
64614;BME280;51025;37.772;-122.432;2023-10-09T02:52:51;100508.66;;;23.80;27.10
64614;BME280;51025;37.772;-122.432;2023-10-09T02:55:19;100515.76;;;23.73;27.17
64614;BME280;51025;37.772;-122.432;2023-10-09T02:57:48;100513.37;;;23.68;27.23
64614;BME280;51025;37.772;-122.432;2023-10-09T03:00:16;100511.00;;;23.68;27.22
64614;BME280;51025;37.772;-122.432;2023-10-09T03:02:44;100520.42;;;23.57;27.34
64614;BME280;51025;37.772;-122.432;2023-10-09T03:05:13;100521.03;;;23.82;27.15
64614;BME280;51025;37.772;-122.432;2023-10-09T03:07:41;100520.95;;;23.41;27.53
64614;BME280;51025;37.772;-122.432;2023-10-09T03:10:09;100522.67;;;23.78;27.23
64614;BME280;51025;37.772;-122.432;2023-10-09T03:12:38;100527.30;;;23.45;27.46
64614;BME280;51025;37.772;-122.432;2023-10-09T03:15:08;100530.01;;;23.66;27.28
64614;BME280;51025;37.772;-122.432;2023-10-09T03:17:36;100535.11;;;23.35;27.24
64614;BME280;51025;37.772;-122.432;2023-10-09T03:20:05;100532.02;;;23.44;27.41
64614;BME280;51025;37.772;-122.432;2023-10-09T03:22:34;100542.42;;;23.22;27.33
64614;BME280;51025;37.772;-122.432;2023-10-09T03:25:02;100538.35;;;23.56;27.35
64614;BME280;51025;37.772;-122.432;2023-10-09T03:27:31;100538.65;;;22.93;27.27
64614;BME280;51025;37.772;-122.432;2023-10-09T03:29:59;100531.92;;;23.63;26.99
64614;BME280;51025;37.772;-122.432;2023-10-09T03:32:27;100532.37;;;22.46;27.89
64614;BME280;51025;37.772;-122.432;2023-10-09T03:34:55;100530.88;;;23.37;28.31
64614;BME280;51025;37.772;-122.432;2023-10-09T03:37:24;100530.12;;;22.91;28.69
64614;BME280;51025;37.772;-122.432;2023-10-09T03:39:53;100530.97;;;23.81;28.68
64614;BME280;51025;37.772;-122.432;2023-10-09T03:42:21;100529.38;;;24.34;28.58
64614;BME280;51025;37.772;-122.432;2023-10-09T03:44:49;100528.16;;;23.91;28.85
64614;BME280;51025;37.772;-122.432;2023-10-09T03:47:18;100529.11;;;23.65;28.93
64614;BME280;51025;37.772;-122.432;2023-10-09T03:49:46;100539.13;;;23.16;29.14
64614;BME280;51025;37.772;-122.432;2023-10-09T03:52:14;100547.50;;;23.63;29.06
64614;BME280;51025;37.772;-122.432;2023-10-09T03:54:42;100549.28;;;23.69;28.77
64614;BME280;51025;37.772;-122.432;2023-10-09T03:57:10;100555.81;;;23.58;29.08
64614;BME280;51025;37.772;-122.432;2023-10-09T03:59:38;100561.97;;;22.68;29.14
64614;BME280;51025;37.772;-122.432;2023-10-09T04:02:07;100570.88;;;23.69;29.02
64614;BME280;51025;37.772;-122.432;2023-10-09T04:04:35;100581.81;;;23.89;28.46
64614;BME280;51025;37.772;-122.432;2023-10-09T04:07:03;100587.18;;;23.43;28.81
64614;BME280;51025;37.772;-122.432;2023-10-09T04:09:31;100594.23;;;22.22;28.87
64614;BME280;51025;37.772;-122.432;2023-10-09T04:11:58;100608.65;;;23.70;28.77
64614;BME280;51025;37.772;-122.432;2023-10-09T04:14:28;100617.34;;;22.89;28.88
64614;BME280;51025;37.772;-122.432;2023-10-09T04:16:56;100627.64;;;23.63;28.89
64614;BME280;51025;37.772;-122.432;2023-10-09T04:19:25;100626.01;;;24.09;28.47
64614;BME280;51025;37.772;-122.432;2023-10-09T04:21:53;100629.62;;;23.62;28.77
64614;BME280;51025;37.772;-122.432;2023-10-09T04:24:21;100642.21;;;23.61;28.77
64614;BME280;51025;37.772;-122.432;2023-10-09T04:26:50;100642.85;;;23.59;28.70
64614;BME280;51025;37.772;-122.432;2023-10-09T04:29:18;100638.18;;;23.86;28.38
64614;BME280;51025;37.772;-122.432;2023-10-09T04:31:46;100630.88;;;23.32;28.45
64614;BME280;51025;37.772;-122.432;2023-10-09T04:34:15;100633.17;;;23.73;28.06
64614;BME280;51025;37.772;-122.432;2023-10-09T04:36:43;100631.51;;;23.26;28.38
64614;BME280;51025;37.772;-122.432;2023-10-09T04:39:12;100628.78;;;23.56;28.35
64614;BME280;51025;37.772;-122.432;2023-10-09T04:41:40;100629.25;;;23.35;28.22
64614;BME280;51025;37.772;-122.432;2023-10-09T04:44:08;100625.31;;;23.34;28.23
64614;BME280;51025;37.772;-122.432;2023-10-09T04:46:36;100636.04;;;23.57;28.04
64614;BME280;51025;37.772;-122.432;2023-10-09T04:49:05;100636.83;;;23.92;27.84
64614;BME280;51025;37.772;-122.432;2023-10-09T04:51:32;100639.53;;;23.89;28.11
64614;BME280;51025;37.772;-122.432;2023-10-09T04:54:01;100647.20;;;23.80;27.87
64614;BME280;51025;37.772;-122.432;2023-10-09T04:56:29;100656.53;;;22.76;28.13
64614;BME280;51025;37.772;-122.432;2023-10-09T04:58:58;100654.23;;;23.96;28.06
64614;BME280;51025;37.772;-122.432;2023-10-09T05:01:26;100650.18;;;22.91;28.30
64614;BME280;51025;37.772;-122.432;2023-10-09T05:03:55;100651.81;;;23.59;28.33
64614;BME280;51025;37.772;-122.432;2023-10-09T05:06:23;100645.59;;;23.49;28.32
64614;BME280;51025;37.772;-122.432;2023-10-09T05:08:51;100648.34;;;23.28;28.52
64614;BME280;51025;37.772;-122.432;2023-10-09T05:11:21;100655.66;;;23.45;28.36
64614;BME280;51025;37.772;-122.432;2023-10-09T05:13:50;100654.47;;;23.39;28.29
64614;BME280;51025;37.772;-122.432;2023-10-09T05:16:20;100652.69;;;23.47;28.26
64614;BME280;51025;37.772;-122.432;2023-10-09T05:18:49;100656.26;;;23.21;28.41
64614;BME280;51025;37.772;-122.432;2023-10-09T05:21:17;100653.19;;;23.32;28.31
64614;BME280;51025;37.772;-122.432;2023-10-09T05:23:45;100648.96;;;23.49;28.08
64614;BME280;51025;37.772;-122.432;2023-10-09T05:26:13;100646.98;;;23.43;28.15
64614;BME280;51025;37.772;-122.432;2023-10-09T05:28:41;100653.68;;;23.53;27.74
64614;BME280;51025;37.772;-122.432;2023-10-09T05:31:09;100653.44;;;23.45;27.98
64614;BME280;51025;37.772;-122.432;2023-10-09T05:33:37;100660.29;;;23.05;28.04
64614;BME280;51025;37.772;-122.432;2023-10-09T05:36:07;100665.95;;;22.91;28.04
64614;BME280;51025;37.772;-122.432;2023-10-09T05:38:41;100665.68;;;23.25;27.84
64614;BME280;51025;37.772;-122.432;2023-10-09T05:41:10;100664.33;;;23.42;27.85
64614;BME280;51025;37.772;-122.432;2023-10-09T05:43:38;100660.08;;;23.31;27.93
64614;BME280;51025;37.772;-122.432;2023-10-09T05:46:06;100656.47;;;23.49;27.69
64614;BME280;51025;37.772;-122.432;2023-10-09T05:48:34;100661.21;;;23.39;27.75
64614;BME280;51025;37.772;-122.432;2023-10-09T05:51:02;100666.80;;;23.21;27.88
64614;BME280;51025;37.772;-122.432;2023-10-09T05:53:30;100665.45;;;22.53;27.77
64614;BME280;51025;37.772;-122.432;2023-10-09T05:55:58;100662.82;;;23.19;27.82
64614;BME280;51025;37.772;-122.432;2023-10-09T05:58:26;100664.40;;;22.24;27.93
64614;BME280;51025;37.772;-122.432;2023-10-09T06:00:55;100665.92;;;23.01;27.87
64614;BME280;51025;37.772;-122.432;2023-10-09T06:03:24;100667.63;;;22.90;27.66
64614;BME280;51025;37.772;-122.432;2023-10-09T06:05:54;100664.48;;;23.24;27.62
64614;BME280;51025;37.772;-122.432;2023-10-09T06:08:23;100659.05;;;22.84;27.65
64614;BME280;51025;37.772;-122.432;2023-10-09T06:10:52;100663.72;;;23.08;27.70
64614;BME280;51025;37.772;-122.432;2023-10-09T06:13:21;100675.59;;;24.07;27.49
64614;BME280;51025;37.772;-122.432;2023-10-09T06:15:49;100680.29;;;23.30;27.44
64614;BME280;51025;37.772;-122.432;2023-10-09T06:18:17;100683.51;;;23.19;27.49
64614;BME280;51025;37.772;-122.432;2023-10-09T06:20:46;100688.20;;;22.90;27.44
64614;BME280;51025;37.772;-122.432;2023-10-09T06:23:15;100698.88;;;23.51;27.25
64614;BME280;51025;37.772;-122.432;2023-10-09T06:25:44;100706.08;;;23.32;27.39
64614;BME280;51025;37.772;-122.432;2023-10-09T06:28:11;100706.44;;;24.25;27.29
64614;BME280;51025;37.772;-122.432;2023-10-09T06:30:39;100707.64;;;23.17;27.21
64614;BME280;51025;37.772;-122.432;2023-10-09T06:33:07;100709.41;;;23.35;27.36
64614;BME280;51025;37.772;-122.432;2023-10-09T06:35:35;100712.73;;;23.24;27.43
64614;BME280;51025;37.772;-122.432;2023-10-09T06:38:04;100718.12;;;23.28;27.41
64614;BME280;51025;37.772;-122.432;2023-10-09T06:40:34;100709.43;;;22.64;27.28
64614;BME280;51025;37.772;-122.432;2023-10-09T06:43:02;100711.27;;;22.82;27.48
64614;BME280;51025;37.772;-122.432;2023-10-09T06:45:31;100715.33;;;22.93;27.38
64614;BME280;51025;37.772;-122.432;2023-10-09T06:47:58;100718.29;;;23.16;27.45
64614;BME280;51025;37.772;-122.432;2023-10-09T06:50:27;100709.11;;;22.35;27.49
64614;BME280;51025;37.772;-122.432;2023-10-09T06:52:55;100706.44;;;23.11;27.42
64614;BME280;51025;37.772;-122.432;2023-10-09T06:55:24;100708.38;;;22.98;27.22
64614;BME280;51025;37.772;-122.432;2023-10-09T06:57:52;100705.39;;;23.49;27.09
64614;BME280;51025;37.772;-122.432;2023-10-09T07:00:22;100703.05;;;23.38;27.12
64614;BME280;51025;37.772;-122.432;2023-10-09T07:02:50;100706.75;;;23.29;27.21
64614;BME280;51025;37.772;-122.432;2023-10-09T07:05:18;100710.00;;;23.76;26.76
64614;BME280;51025;37.772;-122.432;2023-10-09T07:07:46;100710.47;;;23.33;27.12
64614;BME280;51025;37.772;-122.432;2023-10-09T07:10:14;100712.02;;;22.98;27.36
64614;BME280;51025;37.772;-122.432;2023-10-09T07:12:43;100702.14;;;23.12;27.22
64614;BME280;51025;37.772;-122.432;2023-10-09T07:15:11;100702.65;;;23.07;27.24
64614;BME280;51025;37.772;-122.432;2023-10-09T07:17:39;100699.36;;;23.19;27.16
64614;BME280;51025;37.772;-122.432;2023-10-09T07:20:09;100700.70;;;22.97;27.29
64614;BME280;51025;37.772;-122.432;2023-10-09T07:22:38;100705.41;;;23.03;27.23
64614;BME280;51025;37.772;-122.432;2023-10-09T07:25:07;100702.75;;;23.25;27.01
64614;BME280;51025;37.772;-122.432;2023-10-09T07:27:40;100708.39;;;22.56;27.29
64614;BME280;51025;37.772;-122.432;2023-10-09T07:30:10;100706.01;;;22.93;27.26
64614;BME280;51025;37.772;-122.432;2023-10-09T07:32:38;100708.77;;;22.62;27.19
64614;BME280;51025;37.772;-122.432;2023-10-09T07:35:07;100710.41;;;22.89;27.24
64614;BME280;51025;37.772;-122.432;2023-10-09T07:37:36;100707.35;;;23.05;26.85
64614;BME280;51025;37.772;-122.432;2023-10-09T07:40:04;100705.69;;;23.29;26.91
64614;BME280;51025;37.772;-122.432;2023-10-09T07:42:32;100703.48;;;23.04;27.08
64614;BME280;51025;37.772;-122.432;2023-10-09T07:45:01;100701.93;;;23.27;26.89
64614;BME280;51025;37.772;-122.432;2023-10-09T07:47:30;100703.61;;;22.72;27.05
64614;BME280;51025;37.772;-122.432;2023-10-09T07:49:58;100710.81;;;22.94;27.12
64614;BME280;51025;37.772;-122.432;2023-10-09T07:52:26;100712.44;;;22.02;27.23
64614;BME280;51025;37.772;-122.432;2023-10-09T07:54:54;100710.22;;;23.02;27.05
64614;BME280;51025;37.772;-122.432;2023-10-09T07:57:23;100716.30;;;22.99;27.02
64614;BME280;51025;37.772;-122.432;2023-10-09T07:59:52;100716.97;;;22.86;27.12
64614;BME280;51025;37.772;-122.432;2023-10-09T08:02:21;100724.77;;;22.71;27.24
64614;BME280;51025;37.772;-122.432;2023-10-09T08:04:50;100733.47;;;22.95;27.04
64614;BME280;51025;37.772;-122.432;2023-10-09T08:07:18;100737.59;;;23.40;26.95
64614;BME280;51025;37.772;-122.432;2023-10-09T08:09:46;100738.68;;;22.90;27.01
64614;BME280;51025;37.772;-122.432;2023-10-09T08:12:14;100735.06;;;22.84;27.06
64614;BME280;51025;37.772;-122.432;2023-10-09T08:14:43;100729.57;;;22.81;27.09
64614;BME280;51025;37.772;-122.432;2023-10-09T08:17:11;100725.47;;;22.83;27.06
64614;BME280;51025;37.772;-122.432;2023-10-09T08:19:41;100723.54;;;22.92;26.99
64614;BME280;51025;37.772;-122.432;2023-10-09T08:22:09;100727.93;;;23.06;26.85
64614;BME280;51025;37.772;-122.432;2023-10-09T08:24:37;100723.79;;;22.87;26.99
64614;BME280;51025;37.772;-122.432;2023-10-09T08:27:05;100723.47;;;22.82;27.04
64614;BME280;51025;37.772;-122.432;2023-10-09T08:29:33;100724.64;;;22.62;26.89
64614;BME280;51025;37.772;-122.432;2023-10-09T08:32:00;100723.56;;;22.84;26.98
64614;BME280;51025;37.772;-122.432;2023-10-09T08:34:28;100718.18;;;22.12;26.93
64614;BME280;51025;37.772;-122.432;2023-10-09T08:36:56;100716.92;;;23.03;27.13
64614;BME280;51025;37.772;-122.432;2023-10-09T08:39:25;100713.98;;;22.75;27.03
64614;BME280;51025;37.772;-122.432;2023-10-09T08:41:54;100709.78;;;23.21;26.97
64614;BME280;51025;37.772;-122.432;2023-10-09T08:44:24;100712.23;;;22.45;26.99
64614;BME280;51025;37.772;-122.432;2023-10-09T08:46:54;100716.56;;;22.73;27.05
64614;BME280;51025;37.772;-122.432;2023-10-09T08:49:23;100714.72;;;22.59;27.18
64614;BME280;51025;37.772;-122.432;2023-10-09T08:51:51;100715.07;;;22.80;27.00
64614;BME280;51025;37.772;-122.432;2023-10-09T08:54:20;100717.82;;;22.59;27.20
64614;BME280;51025;37.772;-122.432;2023-10-09T08:56:48;100716.26;;;22.97;27.17
64614;BME280;51025;37.772;-122.432;2023-10-09T08:59:17;100714.57;;;22.86;27.28
64614;BME280;51025;37.772;-122.432;2023-10-09T09:01:46;100712.79;;;22.96;27.20
64614;BME280;51025;37.772;-122.432;2023-10-09T09:04:47;100716.86;;;22.48;27.29
64614;BME280;51025;37.772;-122.432;2023-10-09T09:07:26;100717.49;;;22.84;27.30
64614;BME280;51025;37.772;-122.432;2023-10-09T09:09:56;100718.15;;;22.54;27.21
64614;BME280;51025;37.772;-122.432;2023-10-09T09:12:25;100719.84;;;22.42;27.34
64614;BME280;51025;37.772;-122.432;2023-10-09T09:14:53;100718.30;;;22.47;27.30
64614;BME280;51025;37.772;-122.432;2023-10-09T09:17:25;100716.25;;;22.65;27.13
64614;BME280;51025;37.772;-122.432;2023-10-09T09:19:57;100716.17;;;23.03;27.10
64614;BME280;51025;37.772;-122.432;2023-10-09T09:22:26;100721.59;;;22.07;27.32
64614;BME280;51025;37.772;-122.432;2023-10-09T09:24:59;100717.58;;;22.52;27.20
64614;BME280;51025;37.772;-122.432;2023-10-09T09:27:44;100713.21;;;22.60;27.12
64614;BME280;51025;37.772;-122.432;2023-10-09T09:30:24;100708.72;;;22.61;27.11
64614;BME280;51025;37.772;-122.432;2023-10-09T09:32:53;100704.58;;;22.88;27.16
64614;BME280;51025;37.772;-122.432;2023-10-09T09:35:21;100697.47;;;22.89;27.16
64614;BME280;51025;37.772;-122.432;2023-10-09T09:37:53;100692.73;;;22.55;27.13
64614;BME280;51025;37.772;-122.432;2023-10-09T09:40:22;100691.42;;;23.23;27.20
64614;BME280;51025;37.772;-122.432;2023-10-09T09:42:51;100690.47;;;22.63;27.05
64614;BME280;51025;37.772;-122.432;2023-10-09T09:45:19;100677.64;;;23.32;26.76
64614;BME280;51025;37.772;-122.432;2023-10-09T09:47:48;100680.74;;;22.97;27.03
64614;BME280;51025;37.772;-122.432;2023-10-09T09:50:18;100674.35;;;22.90;27.09
64614;BME280;51025;37.772;-122.432;2023-10-09T09:52:46;100668.43;;;23.09;27.26
64614;BME280;51025;37.772;-122.432;2023-10-09T09:55:14;100665.63;;;22.50;27.41
64614;BME280;51025;37.772;-122.432;2023-10-09T09:57:42;100659.50;;;22.31;27.23
64614;BME280;51025;37.772;-122.432;2023-10-09T10:00:13;100660.47;;;22.75;27.18
64614;BME280;51025;37.772;-122.432;2023-10-09T10:02:42;100645.92;;;22.28;27.24
64614;BME280;51025;37.772;-122.432;2023-10-09T10:05:12;100650.02;;;22.34;27.18
64614;BME280;51025;37.772;-122.432;2023-10-09T10:07:41;100658.54;;;22.54;27.31
64614;BME280;51025;37.772;-122.432;2023-10-09T10:10:36;100658.47;;;22.25;27.26
64614;BME280;51025;37.772;-122.432;2023-10-09T10:13:05;100666.15;;;22.22;27.28
64614;BME280;51025;37.772;-122.432;2023-10-09T10:16:07;100670.38;;;21.77;27.37
64614;BME280;51025;37.772;-122.432;2023-10-09T10:18:53;100673.18;;;22.02;27.16
64614;BME280;51025;37.772;-122.432;2023-10-09T10:21:24;100668.87;;;22.35;27.16
64614;BME280;51025;37.772;-122.432;2023-10-09T10:23:52;100673.94;;;22.33;27.18
64614;BME280;51025;37.772;-122.432;2023-10-09T10:26:22;100669.91;;;23.41;26.92
64614;BME280;51025;37.772;-122.432;2023-10-09T10:29:15;100665.14;;;22.44;27.06
64614;BME280;51025;37.772;-122.432;2023-10-09T10:32:01;100668.19;;;22.36;27.13
64614;BME280;51025;37.772;-122.432;2023-10-09T10:34:52;100668.99;;;22.38;27.12
64614;BME280;51025;37.772;-122.432;2023-10-09T10:37:22;100674.64;;;22.29;27.18
64614;BME280;51025;37.772;-122.432;2023-10-09T10:40:00;100675.35;;;22.61;27.20
64614;BME280;51025;37.772;-122.432;2023-10-09T10:42:28;100678.87;;;22.19;27.26
64614;BME280;51025;37.772;-122.432;2023-10-09T10:44:57;100683.40;;;22.20;27.25
64614;BME280;51025;37.772;-122.432;2023-10-09T10:47:28;100685.15;;;22.86;27.35
64614;BME280;51025;37.772;-122.432;2023-10-09T10:49:57;100686.43;;;22.87;27.36
64614;BME280;51025;37.772;-122.432;2023-10-09T10:52:26;100681.29;;;22.04;27.40
64614;BME280;51025;37.772;-122.432;2023-10-09T10:55:08;100682.37;;;22.50;27.30
64614;BME280;51025;37.772;-122.432;2023-10-09T10:57:37;100679.97;;;22.47;27.30
64614;BME280;51025;37.772;-122.432;2023-10-09T11:00:12;100673.14;;;22.71;27.08
64614;BME280;51025;37.772;-122.432;2023-10-09T11:02:44;100668.46;;;22.54;27.22
64614;BME280;51025;37.772;-122.432;2023-10-09T11:05:12;100676.24;;;22.92;27.24
64614;BME280;51025;37.772;-122.432;2023-10-09T11:07:41;100681.86;;;22.83;27.33
64614;BME280;51025;37.772;-122.432;2023-10-09T11:10:09;100675.87;;;22.83;27.32
64614;BME280;51025;37.772;-122.432;2023-10-09T11:12:45;100681.53;;;22.55;27.19
64614;BME280;51025;37.772;-122.432;2023-10-09T11:15:15;100682.59;;;22.38;27.35
64614;BME280;51025;37.772;-122.432;2023-10-09T11:17:43;100675.18;;;22.01;27.38
64614;BME280;51025;37.772;-122.432;2023-10-09T11:20:12;100672.69;;;22.07;27.33
64614;BME280;51025;37.772;-122.432;2023-10-09T11:22:40;100668.98;;;22.31;27.43
64614;BME280;51025;37.772;-122.432;2023-10-09T11:25:09;100668.02;;;22.19;27.52
64614;BME280;51025;37.772;-122.432;2023-10-09T11:27:37;100661.66;;;21.97;27.39
64614;BME280;51025;37.772;-122.432;2023-10-09T11:30:07;100649.55;;;21.99;27.36
64614;BME280;51025;37.772;-122.432;2023-10-09T11:32:36;100644.43;;;22.02;27.34
64614;BME280;51025;37.772;-122.432;2023-10-09T11:35:14;100649.17;;;22.75;27.35
64614;BME280;51025;37.772;-122.432;2023-10-09T11:37:42;100650.62;;;22.18;27.47
64614;BME280;51025;37.772;-122.432;2023-10-09T11:40:29;100641.32;;;22.93;27.16
64614;BME280;51025;37.772;-122.432;2023-10-09T11:43:00;100636.06;;;22.98;27.09
64614;BME280;51025;37.772;-122.432;2023-10-09T11:45:29;100637.23;;;21.98;27.31
64614;BME280;51025;37.772;-122.432;2023-10-09T11:48:15;100641.99;;;22.65;27.39
64614;BME280;51025;37.772;-122.432;2023-10-09T11:50:45;100645.57;;;22.06;27.19
64614;BME280;51025;37.772;-122.432;2023-10-09T11:53:13;100651.25;;;22.72;27.30
64614;BME280;51025;37.772;-122.432;2023-10-09T11:55:41;100635.75;;;21.80;27.41
64614;BME280;51025;37.772;-122.432;2023-10-09T11:58:09;100634.59;;;22.69;27.32
64614;BME280;51025;37.772;-122.432;2023-10-09T12:00:37;100640.17;;;22.50;27.48
64614;BME280;51025;37.772;-122.432;2023-10-09T12:03:05;100646.57;;;22.73;27.26
64614;BME280;51025;37.772;-122.432;2023-10-09T12:05:33;100649.78;;;21.65;27.52
64614;BME280;51025;37.772;-122.432;2023-10-09T12:08:03;100642.94;;;22.60;27.36
64614;BME280;51025;37.772;-122.432;2023-10-09T12:10:31;100632.37;;;21.75;27.43
64614;BME280;51025;37.772;-122.432;2023-10-09T12:12:59;100625.99;;;22.47;27.43
64614;BME280;51025;37.772;-122.432;2023-10-09T12:15:28;100619.98;;;21.88;27.31
64614;BME280;51025;37.772;-122.432;2023-10-09T12:17:56;100613.98;;;22.38;27.51
64614;BME280;51025;37.772;-122.432;2023-10-09T12:20:25;100616.74;;;21.66;27.46
64614;BME280;51025;37.772;-122.432;2023-10-09T12:22:53;100616.26;;;22.49;27.40
64614;BME280;51025;37.772;-122.432;2023-10-09T12:25:22;100614.88;;;22.73;27.23
64614;BME280;51025;37.772;-122.432;2023-10-09T12:27:50;100617.29;;;22.45;27.42
64614;BME280;51025;37.772;-122.432;2023-10-09T12:30:18;100622.44;;;22.42;27.43
64614;BME280;51025;37.772;-122.432;2023-10-09T12:32:46;100617.10;;;22.52;27.34